KDVT

Phoenix Deer Valley Airport

Phoenix, Arizona, USA
METAR KDVT 231053Z AUTO 04003KT 10SM CLR 22/13 A2983 RMK AO2 SLP080 T02220128
Observed Flight Rules
Oct-23 @ 10:53 UTC (56 minutes ago) Visual Flight Rules
Wind Visibility Clouds
40° at 3 knots 10 miles
  • Clear skies
Temperatures Readings
Current 22°C / 72°F
Dewpoint 13°C / 55°F
Humidity 57%
Altimeter 29.83" Hg
Pressure 1008 hPa
Elevation 443
METAR KDVT 231053Z AUTO 04003KT 10SM CLR 22/13 A2983 RMK AO2 SLP080 T02220128
Observed Flight Rules
Oct-23 @ 10:53 UTC
(56 minutes ago)
VFR
Wind Visibility
40° at 3 knots 10 miles
Clouds
  • Clear skies
Temperature Dewpoint
22°C / 72°F 13°C / 55°F
Humidity Altimeter Pressure
57% 29.83" Hg 1008 hPa